createdAt,value
2022-11-14T00:02:27.161Z,6.83
2022-11-14T00:05:49.378Z,6.86
2022-11-14T00:09:11.391Z,6.88
2022-11-14T00:12:32.936Z,6.86
2022-11-14T00:15:55.835Z,6.86
2022-11-14T00:19:17.998Z,6.84
2022-11-14T00:22:39.634Z,6.80
2022-11-14T00:26:01.194Z,6.80
2022-11-14T00:29:23.609Z,6.79
2022-11-14T00:32:46.641Z,6.79
2022-11-14T00:36:08.891Z,6.79
2022-11-14T00:39:30.830Z,6.78
2022-11-14T00:42:57.155Z,6.77
2022-11-14T00:46:19.418Z,6.74
2022-11-14T00:49:42.731Z,6.73
2022-11-14T00:53:04.093Z,6.69
2022-11-14T00:56:26.071Z,6.68
2022-11-14T00:59:47.551Z,6.65
2022-11-14T01:03:09.146Z,6.62
2022-11-14T01:06:32.331Z,6.58
2022-11-14T01:09:56.180Z,6.54
2022-11-14T01:13:19.442Z,6.51
2022-11-14T01:16:40.876Z,6.48
2022-11-14T01:20:03.149Z,6.49
2022-11-14T01:23:26.268Z,6.43
2022-11-14T01:26:48.381Z,6.44
2022-11-14T01:30:11.014Z,6.43
2022-11-14T01:33:33.120Z,6.43
2022-11-14T01:36:57.052Z,6.42
2022-11-14T01:40:20.335Z,6.40
2022-11-14T01:43:43.031Z,6.31
2022-11-14T01:47:05.815Z,6.31
2022-11-14T01:50:29.218Z,6.28
2022-11-14T01:53:56.441Z,6.31
2022-11-14T01:57:24.279Z,6.31
2022-11-14T02:00:45.848Z,6.31
2022-11-14T02:04:12.788Z,6.30
2022-11-14T02:07:40.655Z,6.34
2022-11-14T02:11:02.699Z,6.33
2022-11-14T02:14:25.618Z,6.39
2022-11-14T02:17:47.024Z,6.38
2022-11-14T02:21:11.402Z,6.37
2022-11-14T02:24:33.162Z,6.38
2022-11-14T02:27:58.053Z,6.40
2022-11-14T02:31:20.079Z,6.42
2022-11-14T02:35:22.529Z,6.45
2022-11-14T02:38:45.590Z,6.47
2022-11-14T02:42:07.392Z,6.49
2022-11-14T02:45:31.936Z,6.48
2022-11-14T02:48:53.289Z,6.47
2022-11-14T02:52:18.589Z,6.45
2022-11-14T02:55:41.691Z,6.39
2022-11-14T02:59:03.203Z,6.40
2022-11-14T03:02:24.821Z,6.38
2022-11-14T03:05:46.422Z,6.33
2022-11-14T03:09:08.406Z,6.32
2022-11-14T03:12:31.304Z,6.32
2022-11-14T03:15:52.830Z,6.30
2022-11-14T03:19:14.828Z,6.27
2022-11-14T03:22:36.322Z,6.31
2022-11-14T03:26:02.104Z,6.33
2022-11-14T03:29:25.049Z,6.30
2022-11-14T03:32:46.876Z,6.29
2022-11-14T03:36:10.072Z,6.30
2022-11-14T03:39:32.580Z,6.29
2022-11-14T03:42:54.071Z,6.27
2022-11-14T03:46:16.995Z,6.22
2022-11-14T03:49:38.906Z,6.16
2022-11-14T03:53:01.156Z,6.11
2022-11-14T03:56:22.852Z,6.08
2022-11-14T03:59:45.026Z,6.04
2022-11-14T04:03:08.540Z,6.03
2022-11-14T04:06:30.288Z,6.05
2022-11-14T04:09:52.380Z,6.04
2022-11-14T04:13:13.803Z,6.02
2022-11-14T04:16:35.475Z,6.03
2022-11-14T04:19:58.819Z,6.03
2022-11-14T04:23:21.202Z,5.99
2022-11-14T04:26:42.659Z,5.95
2022-11-14T04:30:05.286Z,5.94
2022-11-14T04:33:26.886Z,5.93
2022-11-14T04:36:51.159Z,5.95
2022-11-14T04:40:13.233Z,5.94
2022-11-14T04:43:36.879Z,5.97
2022-11-14T04:46:58.420Z,5.99
2022-11-14T04:50:20.072Z,6.04
2022-11-14T04:53:42.999Z,6.03
2022-11-14T04:57:04.789Z,6.00
2022-11-14T05:00:30.221Z,6.00
2022-11-14T05:03:52.167Z,6.00
2022-11-14T05:07:14.231Z,6.02
2022-11-14T05:10:37.281Z,5.99
2022-11-14T05:13:58.918Z,6.01
2022-11-14T05:17:20.692Z,5.99
2022-11-14T05:20:42.257Z,6.01
2022-11-14T05:24:04.069Z,5.99
2022-11-14T05:27:27.362Z,5.98
2022-11-14T05:30:49.043Z,6.03
2022-11-14T05:34:11.019Z,6.01
2022-11-14T05:37:32.787Z,5.97
2022-11-14T05:40:54.390Z,5.93
2022-11-14T05:44:17.429Z,5.94
2022-11-14T05:47:39.343Z,5.94
2022-11-14T05:51:04.916Z,5.91
2022-11-14T05:54:26.507Z,5.91
2022-11-14T05:57:48.535Z,5.93
2022-11-14T06:01:13.928Z,5.87
2022-11-14T06:04:35.490Z,5.91
2022-11-14T06:07:57.714Z,5.90
2022-11-14T06:11:21.284Z,5.90
2022-11-14T06:14:43.272Z,5.83
2022-11-14T06:18:06.259Z,5.81
2022-11-14T06:21:28.012Z,5.80
2022-11-14T06:24:49.756Z,5.81
2022-11-14T06:28:11.360Z,5.82
2022-11-14T06:31:33.161Z,5.84
2022-11-14T06:34:56.113Z,5.79
2022-11-14T06:38:18.068Z,5.77
2022-11-14T06:41:41.968Z,5.78
2022-11-14T06:45:03.735Z,5.80
2022-11-14T06:48:26.076Z,5.80
2022-11-14T06:51:48.867Z,5.81
2022-11-14T06:55:10.779Z,5.82
2022-11-14T06:58:35.521Z,5.84
2022-11-14T07:01:57.484Z,5.85
2022-11-14T07:05:19.426Z,5.84
2022-11-14T07:08:42.529Z,5.79
2022-11-14T07:12:06.984Z,5.83
2022-11-14T07:15:29.431Z,5.84
2022-11-14T07:18:50.901Z,5.87
2022-11-14T07:22:12.756Z,5.85
2022-11-14T07:25:35.742Z,5.83
2022-11-14T07:29:02.104Z,5.81
2022-11-14T07:32:24.538Z,5.78
2022-11-14T07:35:45.969Z,5.78
2022-11-14T07:39:07.980Z,5.80
2022-11-14T07:42:31.356Z,5.86
2022-11-14T07:45:53.367Z,5.90
2022-11-14T07:49:14.833Z,5.87
2022-11-14T07:52:36.787Z,5.85
2022-11-14T07:56:02.546Z,5.89
2022-11-14T07:59:25.343Z,5.85
2022-11-14T08:02:47.292Z,5.92
2022-11-14T08:06:13.310Z,5.90
2022-11-14T08:09:35.272Z,5.89
2022-11-14T08:13:25.283Z,5.84
2022-11-14T08:16:43.933Z,5.85
2022-11-14T08:20:07.875Z,5.92
2022-11-14T08:23:29.234Z,5.95
2022-11-14T08:26:51.195Z,6.02
2022-11-14T08:30:14.479Z,6.16
2022-11-14T08:33:37.783Z,6.26
2022-11-14T08:36:59.698Z,6.41
2022-11-14T08:40:21.187Z,6.47
2022-11-14T08:43:43.053Z,6.42
2022-11-14T08:47:05.152Z,6.43
2022-11-14T08:50:28.332Z,6.52
2022-11-14T08:53:51.498Z,6.47
2022-11-14T08:57:15.250Z,6.36
2022-11-14T09:00:37.027Z,6.32
2022-11-14T09:03:59.966Z,6.38
2022-11-14T09:07:23.393Z,6.51
2022-11-14T09:10:45.201Z,6.61
2022-11-14T09:14:06.715Z,6.72
2022-11-14T09:17:28.195Z,6.85
2022-11-14T09:20:49.673Z,6.92
2022-11-14T09:24:12.707Z,6.99
2022-11-14T09:27:34.376Z,7.00
2022-11-14T09:31:01.999Z,6.96
2022-11-14T09:34:23.683Z,7.07
2022-11-14T09:37:45.083Z,7.14
2022-11-14T09:41:24.869Z,7.29
2022-11-14T09:44:55.263Z,7.25
2022-11-14T09:48:21.333Z,7.39
2022-11-14T09:51:52.049Z,7.46
2022-11-14T09:55:18.972Z,7.40
2022-11-14T09:58:43.474Z,7.52
2022-11-14T10:02:32.665Z,7.66
2022-11-14T10:06:13.717Z,7.74
2022-11-14T10:09:52.574Z,7.87
2022-11-14T10:13:39.324Z,8.03
2022-11-14T10:17:21.090Z,8.11
2022-11-14T10:20:48.885Z,8.05
2022-11-14T10:24:32.334Z,8.15
2022-11-14T10:28:16.841Z,8.23
2022-11-14T10:31:50.122Z,8.30
2022-11-14T10:35:17.463Z,8.33
2022-11-14T10:38:44.945Z,8.42
2022-11-14T10:42:15.686Z,8.58
2022-11-14T10:45:44.545Z,8.69
2022-11-14T10:49:17.162Z,8.83
2022-11-14T10:52:44.040Z,8.91
2022-11-14T10:56:06.098Z,9.05
2022-11-14T10:59:28.096Z,9.08
2022-11-14T11:02:53.647Z,9.23
2022-11-14T11:06:27.374Z,9.35
2022-11-14T11:10:18.715Z,9.43
2022-11-14T11:13:51.877Z,9.49
2022-11-14T11:17:23.164Z,9.65
2022-11-14T11:20:44.707Z,9.81
2022-11-14T11:24:07.486Z,9.89
2022-11-14T11:27:31.469Z,9.92
2022-11-14T11:30:58.140Z,10.14
2022-11-14T11:34:25.988Z,10.24
2022-11-14T11:37:54.644Z,10.41
2022-11-14T11:45:17.547Z,10.45
2022-11-14T11:48:40.761Z,10.61
2022-11-14T11:52:06.939Z,10.66
2022-11-14T11:55:31.958Z,10.74
2022-11-14T11:59:01.340Z,10.86
2022-11-14T12:02:27.680Z,10.92
2022-11-14T12:06:04.654Z,10.91
2022-11-14T12:10:08.336Z,11.01
2022-11-14T12:13:46.488Z,10.88
2022-11-14T12:17:37.325Z,11.01
2022-11-14T12:21:36.577Z,11.16
2022-11-14T12:25:35.851Z,11.20
2022-11-14T12:29:17.962Z,10.98
2022-11-14T12:32:47.998Z,10.93
2022-11-14T12:36:12.775Z,11.06
2022-11-14T12:39:34.744Z,11.09
2022-11-14T12:42:57.747Z,10.93
2022-11-14T12:46:19.479Z,10.90
2022-11-14T12:50:06.659Z,10.95
2022-11-14T12:53:44.708Z,10.97
2022-11-14T12:57:11.198Z,11.07
2022-11-14T13:00:35.994Z,11.12
2022-11-14T13:04:17.776Z,11.19
2022-11-14T13:07:52.226Z,11.19
2022-11-14T13:11:55.316Z,11.25
2022-11-14T13:15:49.204Z,11.33
2022-11-14T13:19:39.680Z,11.44
2022-11-14T13:23:02.785Z,11.57
2022-11-14T13:26:55.106Z,11.61
2022-11-14T13:30:17.429Z,11.57
2022-11-14T13:33:42.783Z,11.48
2022-11-14T13:37:20.004Z,11.45
2022-11-14T13:40:53.618Z,11.40
2022-11-14T13:44:50.057Z,11.36
2022-11-14T13:48:44.812Z,11.31
2022-11-14T13:52:09.474Z,11.14
2022-11-14T13:55:39.907Z,11.13
2022-11-14T13:59:56.697Z,11.07
2022-11-14T14:03:38.298Z,11.05
2022-11-14T14:07:12.943Z,10.93
2022-11-14T14:10:44.207Z,10.86
2022-11-14T14:14:32.242Z,10.89
2022-11-14T14:18:09.570Z,10.76
2022-11-14T14:21:45.069Z,10.76
2022-11-14T14:25:24.022Z,10.67
2022-11-14T14:28:56.347Z,10.65
2022-11-14T14:32:21.525Z,10.61
2022-11-14T14:35:54.680Z,10.53
2022-11-14T14:39:19.968Z,10.50
2022-11-14T14:42:47.213Z,10.52
2022-11-14T14:46:13.823Z,10.45
2022-11-14T14:49:38.133Z,10.37
2022-11-14T14:53:05.134Z,10.30
2022-11-14T14:56:30.461Z,10.23
2022-11-14T15:00:00.963Z,10.01
2022-11-14T15:03:23.835Z,10.04
2022-11-14T15:06:48.202Z,10.00
2022-11-14T15:10:24.456Z,9.82
2022-11-14T15:13:48.148Z,9.65
2022-11-14T15:17:11.610Z,9.67
2022-11-14T15:20:33.292Z,9.58
2022-11-14T15:24:03.724Z,9.52
2022-11-14T15:27:26.390Z,9.36
2022-11-14T15:30:59.235Z,9.20
2022-11-14T15:34:30.692Z,9.18
2022-11-14T15:38:28.895Z,9.13
2022-11-14T15:41:45.309Z,9.07
2022-11-14T15:48:35.647Z,8.97
2022-11-14T15:51:59.848Z,8.84
2022-11-14T15:55:24.045Z,8.80
2022-11-14T15:58:49.312Z,8.75
2022-11-14T16:02:17.541Z,8.68
2022-11-14T16:05:40.463Z,8.65
2022-11-14T16:09:02.056Z,8.63
2022-11-14T16:12:23.838Z,8.57
2022-11-14T16:15:45.616Z,8.54
2022-11-14T16:19:08.112Z,8.48
2022-11-14T16:22:31.335Z,8.47
2022-11-14T16:25:53.394Z,8.42
2022-11-14T16:29:16.472Z,8.40
2022-11-14T16:32:38.781Z,8.38
2022-11-14T16:36:00.657Z,8.33
2022-11-14T16:39:24.022Z,8.32
2022-11-14T16:42:46.293Z,8.26
2022-11-14T16:46:09.098Z,8.15
2022-11-14T16:49:33.002Z,8.03
2022-11-14T16:52:55.187Z,8.06
2022-11-14T16:56:18.264Z,7.98
2022-11-14T16:59:39.980Z,7.92
2022-11-14T17:03:01.738Z,7.89
2022-11-14T17:06:23.726Z,7.85
2022-11-14T17:09:45.566Z,7.77
2022-11-14T17:13:09.022Z,7.80
2022-11-14T17:16:30.780Z,7.75
2022-11-14T17:19:52.996Z,7.70
2022-11-14T17:23:14.647Z,7.65
2022-11-14T17:26:36.665Z,7.61
2022-11-14T17:29:59.647Z,7.60
2022-11-14T17:33:21.130Z,7.56
2022-11-14T17:36:43.166Z,7.55
2022-11-14T17:40:05.944Z,7.48
2022-11-14T17:43:34.312Z,7.46
2022-11-14T17:47:00.104Z,7.42
2022-11-14T17:50:21.816Z,7.39
2022-11-14T17:53:43.991Z,7.34
2022-11-14T17:57:05.829Z,7.31
2022-11-14T18:00:27.267Z,7.27
2022-11-14T18:03:50.602Z,7.23
2022-11-14T18:07:12.239Z,7.20
2022-11-14T18:10:34.149Z,7.17
2022-11-14T18:13:56.472Z,7.12
2022-11-14T18:17:18.102Z,7.12
2022-11-14T18:20:41.269Z,7.10
2022-11-14T18:24:03.045Z,7.04
2022-11-14T18:27:27.506Z,6.97
2022-11-14T18:30:55.683Z,6.97
2022-11-14T18:34:17.736Z,6.94
2022-11-14T18:37:40.634Z,6.93
2022-11-14T18:41:04.296Z,6.91
2022-11-14T18:44:25.799Z,6.90
2022-11-14T18:47:47.810Z,6.87
2022-11-14T18:51:13.642Z,6.84
2022-11-14T18:54:36.531Z,6.81
2022-11-14T18:57:58.561Z,6.81
2022-11-14T19:01:24.861Z,6.76
2022-11-14T19:04:46.728Z,6.73
2022-11-14T19:08:08.907Z,6.69
2022-11-14T19:11:50.271Z,6.66
2022-11-14T19:15:12.105Z,6.59
2022-11-14T19:18:34.158Z,6.58
2022-11-14T19:21:59.201Z,6.56
2022-11-14T19:25:20.782Z,6.52
2022-11-14T19:28:44.641Z,6.51
2022-11-14T19:32:09.620Z,6.53
2022-11-14T19:35:31.418Z,6.49
2022-11-14T19:38:55.755Z,6.42
2022-11-14T19:42:17.577Z,6.39
2022-11-14T19:45:41.273Z,6.31
2022-11-14T19:49:03.878Z,6.41
2022-11-14T19:52:26.109Z,6.36
2022-11-14T19:55:47.705Z,6.32
2022-11-14T19:59:14.772Z,6.26
2022-11-14T20:02:40.476Z,6.26
2022-11-14T20:06:02.540Z,6.22
2022-11-14T20:09:24.328Z,6.23
2022-11-14T20:12:46.207Z,6.22
2022-11-14T20:16:20.104Z,6.19
2022-11-14T20:19:42.819Z,6.19
2022-11-14T20:23:06.152Z,6.22
2022-11-14T20:26:27.838Z,6.17
2022-11-14T20:29:49.606Z,6.17
2022-11-14T20:33:11.755Z,6.15
2022-11-14T20:36:56.492Z,5.93
2022-11-14T20:40:16.834Z,5.99
2022-11-14T20:43:38.960Z,6.05
2022-11-14T20:47:00.755Z,6.06
2022-11-14T20:50:22.468Z,6.05
2022-11-14T20:53:46.085Z,6.02
2022-11-14T20:57:07.897Z,5.89
2022-11-14T21:00:29.449Z,5.91
2022-11-14T21:03:51.100Z,5.87
2022-11-14T21:07:12.621Z,5.83
2022-11-14T21:10:47.766Z,5.71
2022-11-14T21:14:11.714Z,5.70
2022-11-14T21:17:33.250Z,5.72
2022-11-14T21:21:04.082Z,5.69
2022-11-14T21:24:25.672Z,5.68
2022-11-14T21:27:48.354Z,5.65
2022-11-14T21:31:19.024Z,5.64
2022-11-14T21:34:41.156Z,5.61
2022-11-14T21:38:03.021Z,5.63
2022-11-14T21:41:28.138Z,5.63
2022-11-14T21:44:51.602Z,5.58
2022-11-14T21:48:13.468Z,5.57
2022-11-14T21:51:35.239Z,5.55
2022-11-14T21:54:56.956Z,5.46
2022-11-14T21:58:18.751Z,5.44
2022-11-14T22:02:01.655Z,5.44
2022-11-14T22:05:23.418Z,5.48
2022-11-14T22:08:45.387Z,5.48
2022-11-14T22:12:08.626Z,5.44
2022-11-14T22:15:30.301Z,5.27
2022-11-14T22:18:55.714Z,5.21
2022-11-14T22:22:19.865Z,5.27
2022-11-14T22:25:41.519Z,5.26
2022-11-14T22:29:03.234Z,5.15
2022-11-14T22:32:24.789Z,5.02
2022-11-14T22:35:48.491Z,4.96
2022-11-14T22:39:10.220Z,4.92
2022-11-14T22:42:31.851Z,4.92
2022-11-14T22:45:54.175Z,4.97
2022-11-14T22:49:20.698Z,5.10
2022-11-14T22:52:44.233Z,5.11
2022-11-14T22:56:11.629Z,5.15
2022-11-14T22:59:33.517Z,5.15
2022-11-14T23:02:55.258Z,5.16
2022-11-14T23:06:19.826Z,5.06
2022-11-14T23:09:43.968Z,5.06
2022-11-14T23:13:07.113Z,5.04
2022-11-14T23:16:31.361Z,4.83
2022-11-14T23:19:52.698Z,4.93
2022-11-14T23:23:15.728Z,4.80
2022-11-14T23:26:38.822Z,4.72
2022-11-14T23:30:00.761Z,4.86
2022-11-14T23:33:22.481Z,4.93
2022-11-14T23:36:43.979Z,4.70
2022-11-14T23:40:07.122Z,4.64
2022-11-14T23:43:31.678Z,4.61
2022-11-14T23:46:53.592Z,4.58
2022-11-14T23:50:16.131Z,4.60
2022-11-14T23:53:38.205Z,4.54
2022-11-14T23:57:04.081Z,4.60
